createdAt,value
2022-09-24T00:01:43.419Z,93953.47
2022-09-24T00:16:45.752Z,93941.59
2022-09-24T00:31:47.531Z,93943.41
2022-09-24T00:46:49.326Z,93939.56
2022-09-24T01:01:51.860Z,93925.00
2022-09-24T01:17:05.776Z,93920.19
2022-09-24T01:32:20.249Z,93913.56
2022-09-24T01:47:35.172Z,93912.72
2022-09-24T02:02:36.700Z,93928.91
2022-09-24T02:17:39.568Z,93943.63
2022-09-24T02:32:42.723Z,93958.41
2022-09-24T02:47:44.201Z,93963.25
2022-09-24T03:02:45.747Z,93974.16
2022-09-24T03:17:47.329Z,93974.00
2022-09-24T03:32:48.806Z,93974.00
2022-09-24T03:47:50.291Z,93995.84
2022-09-24T04:02:51.944Z,93997.53
2022-09-24T04:17:54.860Z,93989.78
2022-09-24T04:32:56.795Z,94017.16
2022-09-24T04:47:58.264Z,94017.38
2022-09-24T05:03:00.968Z,94009.03
2022-09-24T05:18:02.522Z,94012.44
2022-09-24T05:33:04.945Z,94011.66
2022-09-24T05:48:06.519Z,94032.41
2022-09-24T06:03:11.864Z,94036.59
2022-09-24T06:18:13.374Z,94040.84
2022-09-24T06:33:14.851Z,94042.41
2022-09-24T06:48:17.621Z,94053.03
2022-09-24T07:03:19.345Z,94052.25
2022-09-24T07:18:20.899Z,94059.56
2022-09-24T07:33:22.364Z,94054.16
2022-09-24T07:48:24.418Z,94043.41
2022-09-24T08:03:26.148Z,94041.13
2022-09-24T08:18:28.674Z,94036.03
2022-09-24T08:33:32.237Z,94038.75
2022-09-24T08:48:37.155Z,94027.06
2022-09-24T09:03:53.993Z,94009.31
2022-09-24T09:19:00.220Z,94004.56
2022-09-24T09:34:04.519Z,93998.50
2022-09-24T09:49:07.196Z,93978.69
2022-09-24T10:04:29.329Z,93951.09
2022-09-24T10:19:32.590Z,93935.41
2022-09-24T10:34:34.055Z,93928.75
2022-09-24T10:49:38.675Z,93919.81
2022-09-24T11:04:43.036Z,93924.06
2022-09-24T11:19:44.471Z,93904.06
2022-09-24T11:35:04.019Z,93886.81
2022-09-24T11:50:14.345Z,93871.34
2022-09-24T12:05:25.018Z,93862.03
2022-09-24T12:20:30.388Z,93872.47
2022-09-24T12:35:37.940Z,93870.72
2022-09-24T12:50:39.707Z,93865.59
2022-09-24T13:05:43.906Z,93851.03
2022-09-24T13:20:56.743Z,93840.66
2022-09-24T13:35:58.430Z,93841.34
2022-09-24T13:51:00.166Z,93823.16
2022-09-24T14:06:02.682Z,93811.28
2022-09-24T14:21:10.799Z,93807.06
2022-09-24T14:36:14.213Z,93797.44
2022-09-24T14:51:26.833Z,93814.75
2022-09-24T15:06:30.285Z,93812.25
2022-09-24T15:21:31.757Z,93821.91
2022-09-24T15:36:33.216Z,93833.34
2022-09-24T15:51:34.759Z,93813.78
2022-09-24T16:06:36.679Z,93863.44
2022-09-24T16:21:38.222Z,93876.88
2022-09-24T16:36:39.734Z,93889.22
2022-09-24T16:51:41.300Z,93890.44
2022-09-24T17:06:45.191Z,93902.19
2022-09-24T17:21:50.096Z,93921.38
2022-09-24T17:36:51.604Z,93931.69
2022-09-24T17:51:53.136Z,93926.66
2022-09-24T18:06:54.635Z,93931.88
2022-09-24T18:21:56.760Z,93933.47
2022-09-24T18:36:58.241Z,93949.25
2022-09-24T18:51:59.747Z,93942.47
2022-09-24T19:07:01.242Z,93934.22
2022-09-24T19:22:02.903Z,93942.75
2022-09-24T19:37:05.505Z,93944.31
2022-09-24T19:52:07.449Z,93950.50
2022-09-24T20:07:08.966Z,93947.72
2022-09-24T20:22:12.851Z,93969.09
2022-09-24T20:37:18.149Z,93962.16
2022-09-24T20:52:20.569Z,93976.50
2022-09-24T21:07:22.049Z,93974.31
2022-09-24T21:22:24.337Z,93982.97
2022-09-24T21:37:25.841Z,93971.38
2022-09-24T21:52:29.805Z,93966.16
2022-09-24T22:16:10.694Z,93969.34
2022-09-24T22:31:13.679Z,93981.66
2022-09-24T22:46:16.229Z,93978.94
2022-09-24T23:01:20.120Z,93974.03
2022-09-24T23:16:28.936Z,93981.63
2022-09-24T23:31:35.393Z,93971.34
2022-09-24T23:46:36.924Z,93974.81
